sensor_id;sensor_type;location;lat;lon;timestamp;P1;durP1;ratioP1;P2;durP2;ratioP2
41629;SDS011;27322;49.488;8.480;2023-06-14T00:01:44;10.80;;;3.30;;
41629;SDS011;27322;49.488;8.480;2023-06-14T00:04:13;6.63;;;3.90;;
41629;SDS011;27322;49.488;8.480;2023-06-14T00:06:41;8.27;;;3.30;;
41629;SDS011;27322;49.488;8.480;2023-06-14T00:09:08;5.72;;;3.20;;
41629;SDS011;27322;49.488;8.480;2023-06-14T00:11:34;5.80;;;3.15;;
41629;SDS011;27322;49.488;8.480;2023-06-14T00:13:59;5.32;;;3.20;;
41629;SDS011;27322;49.488;8.480;2023-06-14T00:16:25;5.57;;;2.85;;
41629;SDS011;27322;49.488;8.480;2023-06-14T00:18:50;5.68;;;3.15;;
41629;SDS011;27322;49.488;8.480;2023-06-14T00:21:19;5.20;;;3.10;;
41629;SDS011;27322;49.488;8.480;2023-06-14T00:23:45;6.63;;;3.30;;
41629;SDS011;27322;49.488;8.480;2023-06-14T00:26:11;5.90;;;3.38;;
41629;SDS011;27322;49.488;8.480;2023-06-14T00:28:36;5.15;;;2.90;;
41629;SDS011;27322;49.488;8.480;2023-06-14T00:31:02;6.60;;;3.05;;
41629;SDS011;27322;49.488;8.480;2023-06-14T00:33:27;4.88;;;2.90;;
41629;SDS011;27322;49.488;8.480;2023-06-14T00:35:53;4.88;;;3.10;;
41629;SDS011;27322;49.488;8.480;2023-06-14T00:38:21;5.70;;;3.35;;
41629;SDS011;27322;49.488;8.480;2023-06-14T00:40:46;5.75;;;3.22;;
41629;SDS011;27322;49.488;8.480;2023-06-14T00:43:12;4.68;;;3.08;;
41629;SDS011;27322;49.488;8.480;2023-06-14T00:45:38;6.90;;;3.38;;
41629;SDS011;27322;49.488;8.480;2023-06-14T00:48:04;5.85;;;3.50;;
41629;SDS011;27322;49.488;8.480;2023-06-14T00:50:31;5.05;;;3.20;;
41629;SDS011;27322;49.488;8.480;2023-06-14T00:52:58;6.03;;;3.13;;
41629;SDS011;27322;49.488;8.480;2023-06-14T00:55:27;6.35;;;3.30;;
41629;SDS011;27322;49.488;8.480;2023-06-14T00:57:54;5.50;;;3.67;;
41629;SDS011;27322;49.488;8.480;2023-06-14T01:00:20;5.05;;;2.88;;
41629;SDS011;27322;49.488;8.480;2023-06-14T01:02:46;6.18;;;3.58;;
41629;SDS011;27322;49.488;8.480;2023-06-14T01:05:11;5.97;;;3.40;;
41629;SDS011;27322;49.488;8.480;2023-06-14T01:10:38;7.55;;;3.55;;
41629;SDS011;27322;49.488;8.480;2023-06-14T01:15:52;6.18;;;3.38;;
41629;SDS011;27322;49.488;8.480;2023-06-14T01:18:20;6.95;;;3.67;;
41629;SDS011;27322;49.488;8.480;2023-06-14T01:20:46;6.63;;;3.72;;
41629;SDS011;27322;49.488;8.480;2023-06-14T01:23:16;6.43;;;3.72;;
41629;SDS011;27322;49.488;8.480;2023-06-14T01:25:42;8.05;;;3.60;;
41629;SDS011;27322;49.488;8.480;2023-06-14T01:28:09;6.97;;;4.13;;
41629;SDS011;27322;49.488;8.480;2023-06-14T01:30:36;8.00;;;3.70;;
41629;SDS011;27322;49.488;8.480;2023-06-14T01:33:03;5.95;;;3.90;;
41629;SDS011;27322;49.488;8.480;2023-06-14T01:35:30;6.65;;;3.65;;
41629;SDS011;27322;49.488;8.480;2023-06-14T01:37:56;7.53;;;3.90;;
41629;SDS011;27322;49.488;8.480;2023-06-14T01:40:23;8.07;;;3.90;;
41629;SDS011;27322;49.488;8.480;2023-06-14T01:42:50;6.70;;;3.35;;
41629;SDS011;27322;49.488;8.480;2023-06-14T01:45:16;7.05;;;3.70;;
41629;SDS011;27322;49.488;8.480;2023-06-14T01:47:44;7.38;;;3.70;;
41629;SDS011;27322;49.488;8.480;2023-06-14T01:50:11;6.55;;;3.53;;
41629;SDS011;27322;49.488;8.480;2023-06-14T01:52:37;8.57;;;3.72;;
41629;SDS011;27322;49.488;8.480;2023-06-14T01:55:04;6.63;;;3.55;;
41629;SDS011;27322;49.488;8.480;2023-06-14T01:57:30;5.63;;;3.53;;
41629;SDS011;27322;49.488;8.480;2023-06-14T01:59:56;5.63;;;3.88;;
41629;SDS011;27322;49.488;8.480;2023-06-14T02:02:22;6.53;;;3.92;;
41629;SDS011;27322;49.488;8.480;2023-06-14T02:04:47;5.68;;;3.75;;
41629;SDS011;27322;49.488;8.480;2023-06-14T02:07:13;5.55;;;3.80;;
41629;SDS011;27322;49.488;8.480;2023-06-14T02:09:40;6.57;;;3.88;;
41629;SDS011;27322;49.488;8.480;2023-06-14T02:12:06;7.13;;;3.88;;
41629;SDS011;27322;49.488;8.480;2023-06-14T02:14:32;7.35;;;4.03;;
41629;SDS011;27322;49.488;8.480;2023-06-14T02:16:58;6.75;;;4.30;;
41629;SDS011;27322;49.488;8.480;2023-06-14T02:19:26;5.03;;;3.78;;
41629;SDS011;27322;49.488;8.480;2023-06-14T02:21:52;7.78;;;3.83;;
41629;SDS011;27322;49.488;8.480;2023-06-14T02:24:17;6.90;;;3.92;;
41629;SDS011;27322;49.488;8.480;2023-06-14T02:26:43;7.35;;;3.97;;
41629;SDS011;27322;49.488;8.480;2023-06-14T02:29:09;6.53;;;3.95;;
41629;SDS011;27322;49.488;8.480;2023-06-14T02:31:37;7.15;;;4.20;;
41629;SDS011;27322;49.488;8.480;2023-06-14T02:34:03;7.05;;;4.25;;
41629;SDS011;27322;49.488;8.480;2023-06-14T02:36:29;6.43;;;4.43;;
41629;SDS011;27322;49.488;8.480;2023-06-14T02:38:55;7.95;;;4.07;;
41629;SDS011;27322;49.488;8.480;2023-06-14T02:41:22;7.20;;;4.47;;
41629;SDS011;27322;49.488;8.480;2023-06-14T02:43:49;6.82;;;4.43;;
41629;SDS011;27322;49.488;8.480;2023-06-14T02:46:14;6.47;;;4.28;;
41629;SDS011;27322;49.488;8.480;2023-06-14T02:48:40;6.38;;;4.50;;
41629;SDS011;27322;49.488;8.480;2023-06-14T02:51:06;8.00;;;5.22;;
41629;SDS011;27322;49.488;8.480;2023-06-14T02:53:33;6.75;;;4.70;;
41629;SDS011;27322;49.488;8.480;2023-06-14T02:55:59;8.95;;;4.63;;
41629;SDS011;27322;49.488;8.480;2023-06-14T02:58:25;7.32;;;4.88;;
41629;SDS011;27322;49.488;8.480;2023-06-14T03:00:51;8.25;;;4.78;;
41629;SDS011;27322;49.488;8.480;2023-06-14T03:03:20;8.15;;;4.60;;
41629;SDS011;27322;49.488;8.480;2023-06-14T03:05:47;8.60;;;4.65;;
41629;SDS011;27322;49.488;8.480;2023-06-14T03:08:14;9.98;;;4.55;;
41629;SDS011;27322;49.488;8.480;2023-06-14T03:10:50;7.78;;;4.57;;
41629;SDS011;27322;49.488;8.480;2023-06-14T03:13:16;7.82;;;4.35;;
41629;SDS011;27322;49.488;8.480;2023-06-14T03:15:42;8.75;;;4.90;;
41629;SDS011;27322;49.488;8.480;2023-06-14T03:18:08;8.80;;;4.57;;
41629;SDS011;27322;49.488;8.480;2023-06-14T03:20:42;7.57;;;4.50;;
41629;SDS011;27322;49.488;8.480;2023-06-14T03:23:10;7.97;;;4.47;;
41629;SDS011;27322;49.488;8.480;2023-06-14T03:25:37;6.93;;;4.30;;
41629;SDS011;27322;49.488;8.480;2023-06-14T03:28:03;7.03;;;4.20;;
41629;SDS011;27322;49.488;8.480;2023-06-14T03:30:30;7.05;;;4.28;;
41629;SDS011;27322;49.488;8.480;2023-06-14T03:32:56;7.50;;;3.80;;
41629;SDS011;27322;49.488;8.480;2023-06-14T03:35:23;8.57;;;4.80;;
41629;SDS011;27322;49.488;8.480;2023-06-14T03:37:49;8.68;;;4.90;;
41629;SDS011;27322;49.488;8.480;2023-06-14T03:40:15;7.32;;;4.05;;
41629;SDS011;27322;49.488;8.480;2023-06-14T03:42:42;8.82;;;4.40;;
41629;SDS011;27322;49.488;8.480;2023-06-14T03:45:08;7.15;;;4.75;;
41629;SDS011;27322;49.488;8.480;2023-06-14T03:47:34;7.60;;;4.80;;
41629;SDS011;27322;49.488;8.480;2023-06-14T03:50:01;8.07;;;4.55;;
41629;SDS011;27322;49.488;8.480;2023-06-14T03:52:27;8.32;;;4.85;;
41629;SDS011;27322;49.488;8.480;2023-06-14T03:54:53;9.57;;;4.40;;
41629;SDS011;27322;49.488;8.480;2023-06-14T03:57:19;7.28;;;4.35;;
41629;SDS011;27322;49.488;8.480;2023-06-14T03:59:45;7.30;;;4.20;;
41629;SDS011;27322;49.488;8.480;2023-06-14T04:02:11;6.88;;;4.50;;
41629;SDS011;27322;49.488;8.480;2023-06-14T04:04:40;7.20;;;4.93;;
41629;SDS011;27322;49.488;8.480;2023-06-14T04:07:09;7.75;;;4.40;;
41629;SDS011;27322;49.488;8.480;2023-06-14T04:09:35;7.25;;;4.63;;
41629;SDS011;27322;49.488;8.480;2023-06-14T04:12:00;7.47;;;4.68;;
41629;SDS011;27322;49.488;8.480;2023-06-14T04:14:26;6.63;;;4.22;;
41629;SDS011;27322;49.488;8.480;2023-06-14T04:16:51;7.25;;;4.40;;
41629;SDS011;27322;49.488;8.480;2023-06-14T04:19:17;9.23;;;4.95;;
41629;SDS011;27322;49.488;8.480;2023-06-14T04:21:42;9.27;;;4.40;;
41629;SDS011;27322;49.488;8.480;2023-06-14T04:24:08;6.55;;;4.57;;
41629;SDS011;27322;49.488;8.480;2023-06-14T04:26:39;7.38;;;4.28;;
41629;SDS011;27322;49.488;8.480;2023-06-14T04:29:05;10.82;;;4.30;;
41629;SDS011;27322;49.488;8.480;2023-06-14T04:31:31;6.07;;;3.85;;
41629;SDS011;27322;49.488;8.480;2023-06-14T04:34:04;7.63;;;4.82;;
41629;SDS011;27322;49.488;8.480;2023-06-14T04:36:31;10.05;;;4.55;;
41629;SDS011;27322;49.488;8.480;2023-06-14T04:38:59;8.68;;;3.80;;
41629;SDS011;27322;49.488;8.480;2023-06-14T04:41:28;7.43;;;4.63;;
41629;SDS011;27322;49.488;8.480;2023-06-14T04:43:59;7.63;;;4.63;;
41629;SDS011;27322;49.488;8.480;2023-06-14T04:46:26;7.97;;;4.60;;
41629;SDS011;27322;49.488;8.480;2023-06-14T04:48:53;6.32;;;4.00;;
41629;SDS011;27322;49.488;8.480;2023-06-14T04:51:19;6.80;;;3.90;;
41629;SDS011;27322;49.488;8.480;2023-06-14T04:53:54;6.82;;;4.15;;
41629;SDS011;27322;49.488;8.480;2023-06-14T04:56:22;7.93;;;4.30;;
41629;SDS011;27322;49.488;8.480;2023-06-14T04:58:48;8.48;;;4.18;;
41629;SDS011;27322;49.488;8.480;2023-06-14T05:01:14;8.00;;;4.30;;
41629;SDS011;27322;49.488;8.480;2023-06-14T05:03:39;7.88;;;4.13;;
41629;SDS011;27322;49.488;8.480;2023-06-14T05:06:06;6.15;;;4.00;;
41629;SDS011;27322;49.488;8.480;2023-06-14T05:08:31;8.20;;;4.40;;
41629;SDS011;27322;49.488;8.480;2023-06-14T05:10:57;6.45;;;4.13;;
41629;SDS011;27322;49.488;8.480;2023-06-14T05:13:23;11.38;;;4.70;;
41629;SDS011;27322;49.488;8.480;2023-06-14T05:15:48;7.60;;;4.40;;
41629;SDS011;27322;49.488;8.480;2023-06-14T05:18:14;8.57;;;4.57;;
41629;SDS011;27322;49.488;8.480;2023-06-14T05:20:40;12.50;;;4.70;;
41629;SDS011;27322;49.488;8.480;2023-06-14T05:23:07;9.15;;;4.65;;
41629;SDS011;27322;49.488;8.480;2023-06-14T05:25:33;9.20;;;4.60;;
41629;SDS011;27322;49.488;8.480;2023-06-14T05:27:59;8.25;;;4.30;;
41629;SDS011;27322;49.488;8.480;2023-06-14T05:30:24;8.45;;;4.57;;
41629;SDS011;27322;49.488;8.480;2023-06-14T05:32:51;8.48;;;4.10;;
41629;SDS011;27322;49.488;8.480;2023-06-14T05:35:18;7.25;;;3.90;;
41629;SDS011;27322;49.488;8.480;2023-06-14T05:37:43;7.78;;;4.43;;
41629;SDS011;27322;49.488;8.480;2023-06-14T05:40:09;7.50;;;3.80;;
41629;SDS011;27322;49.488;8.480;2023-06-14T05:42:35;7.18;;;4.18;;
41629;SDS011;27322;49.488;8.480;2023-06-14T05:45:00;8.23;;;4.35;;
41629;SDS011;27322;49.488;8.480;2023-06-14T05:47:26;8.13;;;3.78;;
41629;SDS011;27322;49.488;8.480;2023-06-14T05:49:52;8.77;;;4.43;;
41629;SDS011;27322;49.488;8.480;2023-06-14T05:52:19;8.88;;;4.50;;
41629;SDS011;27322;49.488;8.480;2023-06-14T05:54:45;8.88;;;4.07;;
41629;SDS011;27322;49.488;8.480;2023-06-14T05:57:11;8.25;;;4.38;;
41629;SDS011;27322;49.488;8.480;2023-06-14T05:59:37;6.72;;;4.13;;
41629;SDS011;27322;49.488;8.480;2023-06-14T06:02:02;7.88;;;3.97;;
41629;SDS011;27322;49.488;8.480;2023-06-14T06:04:28;9.85;;;3.70;;
41629;SDS011;27322;49.488;8.480;2023-06-14T06:06:54;10.05;;;4.30;;
41629;SDS011;27322;49.488;8.480;2023-06-14T06:09:19;7.10;;;4.35;;
41629;SDS011;27322;49.488;8.480;2023-06-14T06:11:45;11.75;;;4.20;;
41629;SDS011;27322;49.488;8.480;2023-06-14T06:14:10;7.10;;;4.00;;
41629;SDS011;27322;49.488;8.480;2023-06-14T06:16:36;6.00;;;3.28;;
41629;SDS011;27322;49.488;8.480;2023-06-14T06:19:01;7.75;;;3.85;;
41629;SDS011;27322;49.488;8.480;2023-06-14T06:21:27;5.93;;;3.67;;
41629;SDS011;27322;49.488;8.480;2023-06-14T06:23:52;8.35;;;4.28;;
41629;SDS011;27322;49.488;8.480;2023-06-14T06:26:21;9.82;;;5.28;;
41629;SDS011;27322;49.488;8.480;2023-06-14T06:28:47;7.15;;;4.00;;
41629;SDS011;27322;49.488;8.480;2023-06-14T06:31:13;9.23;;;3.80;;
41629;SDS011;27322;49.488;8.480;2023-06-14T06:33:39;7.43;;;3.67;;
41629;SDS011;27322;49.488;8.480;2023-06-14T06:36:05;5.90;;;3.38;;
41629;SDS011;27322;49.488;8.480;2023-06-14T06:38:30;8.43;;;3.58;;
41629;SDS011;27322;49.488;8.480;2023-06-14T06:40:56;5.38;;;3.33;;
41629;SDS011;27322;49.488;8.480;2023-06-14T06:43:21;6.47;;;3.72;;
41629;SDS011;27322;49.488;8.480;2023-06-14T06:45:47;6.95;;;3.15;;
41629;SDS011;27322;49.488;8.480;2023-06-14T06:48:13;5.43;;;3.10;;
41629;SDS011;27322;49.488;8.480;2023-06-14T06:50:38;7.40;;;3.40;;
41629;SDS011;27322;49.488;8.480;2023-06-14T06:53:04;7.50;;;3.40;;
41629;SDS011;27322;49.488;8.480;2023-06-14T06:55:30;7.82;;;3.20;;
41629;SDS011;27322;49.488;8.480;2023-06-14T06:57:55;8.65;;;3.80;;
41629;SDS011;27322;49.488;8.480;2023-06-14T07:00:21;6.93;;;3.58;;
41629;SDS011;27322;49.488;8.480;2023-06-14T07:02:47;6.10;;;3.50;;
41629;SDS011;27322;49.488;8.480;2023-06-14T07:05:12;5.30;;;3.22;;
41629;SDS011;27322;49.488;8.480;2023-06-14T07:07:38;6.80;;;3.22;;
41629;SDS011;27322;49.488;8.480;2023-06-14T07:10:04;8.38;;;3.28;;
41629;SDS011;27322;49.488;8.480;2023-06-14T07:12:33;12.35;;;3.13;;
41629;SDS011;27322;49.488;8.480;2023-06-14T07:15:01;5.50;;;3.10;;
41629;SDS011;27322;49.488;8.480;2023-06-14T07:17:26;6.18;;;3.17;;
41629;SDS011;27322;49.488;8.480;2023-06-14T07:19:52;7.05;;;3.63;;
41629;SDS011;27322;49.488;8.480;2023-06-14T07:22:18;4.82;;;3.15;;
41629;SDS011;27322;49.488;8.480;2023-06-14T07:24:44;6.60;;;3.90;;
41629;SDS011;27322;49.488;8.480;2023-06-14T07:27:10;5.45;;;3.40;;
41629;SDS011;27322;49.488;8.480;2023-06-14T07:29:38;6.32;;;3.35;;
41629;SDS011;27322;49.488;8.480;2023-06-14T07:32:03;5.80;;;3.10;;
41629;SDS011;27322;49.488;8.480;2023-06-14T07:34:29;6.53;;;3.38;;
41629;SDS011;27322;49.488;8.480;2023-06-14T07:36:55;6.13;;;3.15;;
41629;SDS011;27322;49.488;8.480;2023-06-14T07:39:21;5.78;;;3.15;;
41629;SDS011;27322;49.488;8.480;2023-06-14T07:41:46;5.93;;;3.47;;
41629;SDS011;27322;49.488;8.480;2023-06-14T07:44:12;6.35;;;3.30;;
41629;SDS011;27322;49.488;8.480;2023-06-14T07:46:38;5.85;;;3.05;;
41629;SDS011;27322;49.488;8.480;2023-06-14T07:49:04;6.90;;;3.05;;
41629;SDS011;27322;49.488;8.480;2023-06-14T07:51:30;6.18;;;2.80;;
41629;SDS011;27322;49.488;8.480;2023-06-14T07:53:55;4.82;;;2.88;;
41629;SDS011;27322;49.488;8.480;2023-06-14T07:56:21;5.72;;;3.10;;
41629;SDS011;27322;49.488;8.480;2023-06-14T07:58:48;11.68;;;4.88;;
41629;SDS011;27322;49.488;8.480;2023-06-14T08:01:13;7.07;;;3.10;;
41629;SDS011;27322;49.488;8.480;2023-06-14T08:03:40;6.47;;;2.72;;
41629;SDS011;27322;49.488;8.480;2023-06-14T08:06:06;6.45;;;2.75;;
41629;SDS011;27322;49.488;8.480;2023-06-14T08:08:32;6.13;;;3.03;;
41629;SDS011;27322;49.488;8.480;2023-06-14T08:10:58;7.20;;;2.88;;
41629;SDS011;27322;49.488;8.480;2023-06-14T08:13:23;7.70;;;2.80;;
41629;SDS011;27322;49.488;8.480;2023-06-14T08:15:49;5.93;;;2.90;;
41629;SDS011;27322;49.488;8.480;2023-06-14T08:18:15;4.95;;;2.88;;
41629;SDS011;27322;49.488;8.480;2023-06-14T08:20:40;5.38;;;2.50;;
41629;SDS011;27322;49.488;8.480;2023-06-14T08:23:06;5.40;;;2.88;;
41629;SDS011;27322;49.488;8.480;2023-06-14T08:25:33;4.45;;;2.63;;
41629;SDS011;27322;49.488;8.480;2023-06-14T08:27:58;5.93;;;2.47;;
41629;SDS011;27322;49.488;8.480;2023-06-14T08:30:25;4.65;;;2.50;;
41629;SDS011;27322;49.488;8.480;2023-06-14T08:32:50;4.53;;;2.65;;
41629;SDS011;27322;49.488;8.480;2023-06-14T08:35:16;7.72;;;2.80;;
41629;SDS011;27322;49.488;8.480;2023-06-14T08:37:43;5.18;;;2.65;;
41629;SDS011;27322;49.488;8.480;2023-06-14T08:40:13;4.88;;;2.35;;
41629;SDS011;27322;49.488;8.480;2023-06-14T08:42:45;6.82;;;2.72;;
41629;SDS011;27322;49.488;8.480;2023-06-14T08:45:12;6.68;;;2.55;;
41629;SDS011;27322;49.488;8.480;2023-06-14T08:47:38;10.90;;;2.97;;
41629;SDS011;27322;49.488;8.480;2023-06-14T08:50:05;9.05;;;2.90;;
41629;SDS011;27322;49.488;8.480;2023-06-14T08:52:32;6.20;;;2.45;;
41629;SDS011;27322;49.488;8.480;2023-06-14T08:55:05;3.40;;;1.80;;
41629;SDS011;27322;49.488;8.480;2023-06-14T08:57:35;5.25;;;1.95;;
41629;SDS011;27322;49.488;8.480;2023-06-14T09:00:02;3.80;;;2.10;;
41629;SDS011;27322;49.488;8.480;2023-06-14T09:02:36;4.80;;;2.47;;
41629;SDS011;27322;49.488;8.480;2023-06-14T09:05:02;5.00;;;2.22;;
41629;SDS011;27322;49.488;8.480;2023-06-14T09:07:28;3.38;;;1.70;;
41629;SDS011;27322;49.488;8.480;2023-06-14T09:10:10;5.32;;;2.00;;
41629;SDS011;27322;49.488;8.480;2023-06-14T09:12:38;5.30;;;1.70;;
41629;SDS011;27322;49.488;8.480;2023-06-14T09:15:07;3.75;;;1.83;;
41629;SDS011;27322;49.488;8.480;2023-06-14T09:17:36;5.85;;;1.70;;
41629;SDS011;27322;49.488;8.480;2023-06-14T09:20:04;3.92;;;1.80;;
41629;SDS011;27322;49.488;8.480;2023-06-14T09:22:31;6.50;;;1.88;;
41629;SDS011;27322;49.488;8.480;2023-06-14T09:24:58;3.65;;;1.90;;
41629;SDS011;27322;49.488;8.480;2023-06-14T09:27:27;3.55;;;1.60;;
41629;SDS011;27322;49.488;8.480;2023-06-14T09:29:53;4.40;;;1.95;;
41629;SDS011;27322;49.488;8.480;2023-06-14T09:32:20;4.10;;;2.05;;
41629;SDS011;27322;49.488;8.480;2023-06-14T09:34:48;5.95;;;1.90;;
41629;SDS011;27322;49.488;8.480;2023-06-14T09:37:27;4.78;;;2.10;;
41629;SDS011;27322;49.488;8.480;2023-06-14T09:39:54;3.50;;;1.95;;
41629;SDS011;27322;49.488;8.480;2023-06-14T09:42:20;9.30;;;2.08;;
41629;SDS011;27322;49.488;8.480;2023-06-14T09:44:49;4.07;;;1.75;;
41629;SDS011;27322;49.488;8.480;2023-06-14T09:47:18;4.47;;;1.80;;
41629;SDS011;27322;49.488;8.480;2023-06-14T09:49:44;5.65;;;1.73;;
41629;SDS011;27322;49.488;8.480;2023-06-14T09:52:19;4.63;;;1.80;;
41629;SDS011;27322;49.488;8.480;2023-06-14T09:54:46;5.25;;;1.98;;
41629;SDS011;27322;49.488;8.480;2023-06-14T09:57:13;3.97;;;1.90;;
41629;SDS011;27322;49.488;8.480;2023-06-14T09:59:44;4.80;;;2.10;;
41629;SDS011;27322;49.488;8.480;2023-06-14T10:02:31;6.25;;;1.98;;
41629;SDS011;27322;49.488;8.480;2023-06-14T10:05:08;7.07;;;2.30;;
41629;SDS011;27322;49.488;8.480;2023-06-14T10:07:40;5.63;;;2.10;;
41629;SDS011;27322;49.488;8.480;2023-06-14T10:10:09;5.85;;;2.17;;
41629;SDS011;27322;49.488;8.480;2023-06-14T10:12:36;3.15;;;1.98;;
41629;SDS011;27322;49.488;8.480;2023-06-14T10:15:02;4.00;;;2.05;;
41629;SDS011;27322;49.488;8.480;2023-06-14T10:22:43;5.35;;;2.35;;
41629;SDS011;27322;49.488;8.480;2023-06-14T10:25:26;5.78;;;2.38;;
41629;SDS011;27322;49.488;8.480;2023-06-14T10:28:14;3.90;;;2.20;;
41629;SDS011;27322;49.488;8.480;2023-06-14T10:31:01;3.35;;;1.88;;
41629;SDS011;27322;49.488;8.480;2023-06-14T10:38:57;3.63;;;2.30;;
41629;SDS011;27322;49.488;8.480;2023-06-14T10:41:24;5.55;;;2.17;;
41629;SDS011;27322;49.488;8.480;2023-06-14T10:43:52;3.08;;;1.95;;
41629;SDS011;27322;49.488;8.480;2023-06-14T10:46:35;4.07;;;2.10;;
41629;SDS011;27322;49.488;8.480;2023-06-14T10:49:01;5.85;;;2.20;;
41629;SDS011;27322;49.488;8.480;2023-06-14T10:51:29;4.18;;;1.83;;
41629;SDS011;27322;49.488;8.480;2023-06-14T10:53:55;4.07;;;2.20;;
41629;SDS011;27322;49.488;8.480;2023-06-14T10:56:27;5.68;;;2.20;;
41629;SDS011;27322;49.488;8.480;2023-06-14T10:58:57;5.90;;;2.13;;
41629;SDS011;27322;49.488;8.480;2023-06-14T11:01:49;4.50;;;1.85;;
41629;SDS011;27322;49.488;8.480;2023-06-14T11:04:12;4.72;;;2.10;;
41629;SDS011;27322;49.488;8.480;2023-06-14T11:12:06;4.45;;;2.05;;
41629;SDS011;27322;49.488;8.480;2023-06-14T11:14:35;5.45;;;2.05;;
41629;SDS011;27322;49.488;8.480;2023-06-14T11:17:01;7.60;;;2.35;;
41629;SDS011;27322;49.488;8.480;2023-06-14T11:19:27;4.68;;;2.25;;
41629;SDS011;27322;49.488;8.480;2023-06-14T11:21:54;4.72;;;1.95;;
41629;SDS011;27322;49.488;8.480;2023-06-14T11:24:20;4.93;;;2.00;;
41629;SDS011;27322;49.488;8.480;2023-06-14T11:26:46;4.45;;;2.10;;
41629;SDS011;27322;49.488;8.480;2023-06-14T11:29:14;3.40;;;1.85;;
41629;SDS011;27322;49.488;8.480;2023-06-14T11:31:43;3.60;;;1.65;;
41629;SDS011;27322;49.488;8.480;2023-06-14T11:34:10;3.53;;;2.03;;
41629;SDS011;27322;49.488;8.480;2023-06-14T11:36:38;4.03;;;2.00;;
41629;SDS011;27322;49.488;8.480;2023-06-14T11:39:07;3.58;;;2.10;;
41629;SDS011;27322;49.488;8.480;2023-06-14T11:41:37;4.15;;;2.33;;
41629;SDS011;27322;49.488;8.480;2023-06-14T11:44:08;4.45;;;2.47;;
41629;SDS011;27322;49.488;8.480;2023-06-14T11:46:34;6.22;;;2.45;;
41629;SDS011;27322;49.488;8.480;2023-06-14T11:49:00;4.47;;;2.20;;
41629;SDS011;27322;49.488;8.480;2023-06-14T11:51:32;4.40;;;2.10;;
41629;SDS011;27322;49.488;8.480;2023-06-14T11:53:59;8.07;;;2.35;;
41629;SDS011;27322;49.488;8.480;2023-06-14T11:56:25;6.07;;;2.50;;
41629;SDS011;27322;49.488;8.480;2023-06-14T11:58:52;7.93;;;2.30;;
41629;SDS011;27322;49.488;8.480;2023-06-14T12:01:21;9.65;;;2.35;;
41629;SDS011;27322;49.488;8.480;2023-06-14T12:03:50;4.38;;;2.10;;
41629;SDS011;27322;49.488;8.480;2023-06-14T12:06:16;3.40;;;1.90;;
41629;SDS011;27322;49.488;8.480;2023-06-14T12:08:55;4.88;;;2.15;;
41629;SDS011;27322;49.488;8.480;2023-06-14T12:11:21;4.53;;;2.33;;
41629;SDS011;27322;49.488;8.480;2023-06-14T12:13:46;3.80;;;2.15;;
41629;SDS011;27322;49.488;8.480;2023-06-14T12:16:14;3.88;;;2.38;;
41629;SDS011;27322;49.488;8.480;2023-06-14T12:18:40;8.65;;;2.28;;
41629;SDS011;27322;49.488;8.480;2023-06-14T12:21:08;3.97;;;2.38;;
41629;SDS011;27322;49.488;8.480;2023-06-14T12:23:48;4.75;;;2.22;;
41629;SDS011;27322;49.488;8.480;2023-06-14T12:26:18;7.60;;;2.55;;
41629;SDS011;27322;49.488;8.480;2023-06-14T12:28:45;4.05;;;2.28;;
41629;SDS011;27322;49.488;8.480;2023-06-14T12:31:12;5.50;;;2.00;;
41629;SDS011;27322;49.488;8.480;2023-06-14T12:33:41;6.35;;;2.38;;
41629;SDS011;27322;49.488;8.480;2023-06-14T12:36:08;6.22;;;2.60;;
41629;SDS011;27322;49.488;8.480;2023-06-14T12:38:35;5.20;;;2.10;;
41629;SDS011;27322;49.488;8.480;2023-06-14T12:41:01;3.65;;;2.03;;
41629;SDS011;27322;49.488;8.480;2023-06-14T12:43:27;4.68;;;2.33;;
41629;SDS011;27322;49.488;8.480;2023-06-14T12:45:53;5.38;;;2.17;;
41629;SDS011;27322;49.488;8.480;2023-06-14T12:48:19;4.75;;;2.22;;
41629;SDS011;27322;49.488;8.480;2023-06-14T12:50:45;5.47;;;2.40;;
41629;SDS011;27322;49.488;8.480;2023-06-14T12:53:10;4.25;;;2.00;;
41629;SDS011;27322;49.488;8.480;2023-06-14T12:55:36;3.40;;;1.88;;
41629;SDS011;27322;49.488;8.480;2023-06-14T12:58:02;3.75;;;2.22;;
41629;SDS011;27322;49.488;8.480;2023-06-14T13:00:27;3.45;;;1.80;;
41629;SDS011;27322;49.488;8.480;2023-06-14T13:02:55;4.03;;;2.38;;
41629;SDS011;27322;49.488;8.480;2023-06-14T13:05:21;5.32;;;2.58;;
41629;SDS011;27322;49.488;8.480;2023-06-14T13:07:47;4.75;;;2.13;;
41629;SDS011;27322;49.488;8.480;2023-06-14T13:10:12;5.32;;;2.30;;
41629;SDS011;27322;49.488;8.480;2023-06-14T13:12:38;4.57;;;2.13;;
41629;SDS011;27322;49.488;8.480;2023-06-14T13:15:04;4.72;;;2.00;;
41629;SDS011;27322;49.488;8.480;2023-06-14T13:17:30;3.42;;;1.92;;
41629;SDS011;27322;49.488;8.480;2023-06-14T13:19:58;3.53;;;2.03;;
41629;SDS011;27322;49.488;8.480;2023-06-14T13:22:24;4.00;;;2.00;;
41629;SDS011;27322;49.488;8.480;2023-06-14T13:24:50;3.97;;;2.03;;
41629;SDS011;27322;49.488;8.480;2023-06-14T13:27:15;3.05;;;2.00;;
41629;SDS011;27322;49.488;8.480;2023-06-14T13:29:41;4.05;;;1.90;;
41629;SDS011;27322;49.488;8.480;2023-06-14T13:32:07;4.45;;;2.30;;
41629;SDS011;27322;49.488;8.480;2023-06-14T13:34:32;6.28;;;2.20;;
41629;SDS011;27322;49.488;8.480;2023-06-14T13:36:58;4.25;;;2.13;;
41629;SDS011;27322;49.488;8.480;2023-06-14T13:39:24;4.88;;;2.15;;
41629;SDS011;27322;49.488;8.480;2023-06-14T13:41:50;4.10;;;2.28;;
41629;SDS011;27322;49.488;8.480;2023-06-14T13:44:16;4.10;;;1.92;;
41629;SDS011;27322;49.488;8.480;2023-06-14T13:46:43;3.13;;;1.98;;
41629;SDS011;27322;49.488;8.480;2023-06-14T13:49:09;4.30;;;2.53;;
41629;SDS011;27322;49.488;8.480;2023-06-14T13:51:35;3.55;;;2.15;;
41629;SDS011;27322;49.488;8.480;2023-06-14T13:54:01;4.88;;;2.40;;
41629;SDS011;27322;49.488;8.480;2023-06-14T13:56:27;4.85;;;2.67;;
41629;SDS011;27322;49.488;8.480;2023-06-14T13:58:52;6.38;;;2.58;;
41629;SDS011;27322;49.488;8.480;2023-06-14T14:01:18;5.28;;;2.28;;
41629;SDS011;27322;49.488;8.480;2023-06-14T14:03:45;5.40;;;2.33;;
41629;SDS011;27322;49.488;8.480;2023-06-14T14:06:12;4.28;;;2.10;;
41629;SDS011;27322;49.488;8.480;2023-06-14T14:08:38;5.95;;;2.20;;
41629;SDS011;27322;49.488;8.480;2023-06-14T14:11:04;3.25;;;2.15;;
41629;SDS011;27322;49.488;8.480;2023-06-14T14:13:30;4.50;;;2.10;;
41629;SDS011;27322;49.488;8.480;2023-06-14T14:15:56;3.92;;;2.40;;
41629;SDS011;27322;49.488;8.480;2023-06-14T14:18:22;5.07;;;2.58;;
41629;SDS011;27322;49.488;8.480;2023-06-14T14:20:48;4.25;;;2.45;;
41629;SDS011;27322;49.488;8.480;2023-06-14T14:23:14;3.22;;;2.15;;
41629;SDS011;27322;49.488;8.480;2023-06-14T14:25:39;4.72;;;2.08;;
41629;SDS011;27322;49.488;8.480;2023-06-14T14:28:05;3.40;;;2.20;;
41629;SDS011;27322;49.488;8.480;2023-06-14T14:30:31;4.80;;;3.03;;
41629;SDS011;27322;49.488;8.480;2023-06-14T14:32:57;4.05;;;2.60;;
41629;SDS011;27322;49.488;8.480;2023-06-14T14:35:23;4.72;;;2.70;;
41629;SDS011;27322;49.488;8.480;2023-06-14T14:37:51;4.28;;;2.30;;
41629;SDS011;27322;49.488;8.480;2023-06-14T14:40:16;6.60;;;2.28;;
41629;SDS011;27322;49.488;8.480;2023-06-14T14:42:42;3.72;;;2.25;;
41629;SDS011;27322;49.488;8.480;2023-06-14T14:45:08;6.15;;;2.60;;
41629;SDS011;27322;49.488;8.480;2023-06-14T14:47:33;4.30;;;2.60;;
41629;SDS011;27322;49.488;8.480;2023-06-14T14:49:59;4.65;;;2.30;;
41629;SDS011;27322;49.488;8.480;2023-06-14T14:52:25;4.32;;;2.45;;
41629;SDS011;27322;49.488;8.480;2023-06-14T14:54:51;5.32;;;2.33;;
41629;SDS011;27322;49.488;8.480;2023-06-14T14:57:18;5.90;;;2.78;;
41629;SDS011;27322;49.488;8.480;2023-06-14T14:59:43;4.85;;;2.65;;
41629;SDS011;27322;49.488;8.480;2023-06-14T15:02:09;4.47;;;2.38;;
41629;SDS011;27322;49.488;8.480;2023-06-14T15:04:35;4.47;;;2.20;;
41629;SDS011;27322;49.488;8.480;2023-06-14T15:07:01;3.92;;;2.35;;
41629;SDS011;27322;49.488;8.480;2023-06-14T15:09:26;7.13;;;2.60;;